createdAt,value
2022-08-24T05:32:08.273Z,99.90
2022-08-24T05:34:36.470Z,99.90
2022-08-24T05:37:04.845Z,99.90
2022-08-24T05:39:32.786Z,99.90
2022-08-24T05:42:00.958Z,96.60
2022-08-24T05:44:31.117Z,92.60
2022-08-24T05:46:59.622Z,91.70
2022-08-24T05:49:28.155Z,89.40
2022-08-24T05:51:55.463Z,86.40
2022-08-24T05:54:23.488Z,83.20
2022-08-24T05:56:51.514Z,80.50
2022-08-24T05:59:19.733Z,77.90
2022-08-24T06:01:47.324Z,75.90
2022-08-24T06:04:14.944Z,73.00
2022-08-24T06:06:42.840Z,71.70
2022-08-24T06:09:11.748Z,70.30
2022-08-24T06:11:40.289Z,70.00
2022-08-24T06:14:12.903Z,68.30
2022-08-24T06:16:43.388Z,67.30
2022-08-24T06:19:13.220Z,67.90
2022-08-24T06:21:41.199Z,69.70
2022-08-24T06:24:08.815Z,72.20
2022-08-24T06:26:56.744Z,73.30
2022-08-24T06:29:23.967Z,73.30
2022-08-24T06:31:54.633Z,74.00
2022-08-24T06:34:26.263Z,74.50
2022-08-24T06:36:53.955Z,75.10
2022-08-24T06:39:21.214Z,75.30
2022-08-24T06:41:48.436Z,74.70
2022-08-24T06:44:15.781Z,73.60
2022-08-24T06:46:43.070Z,73.00
2022-08-24T06:49:10.311Z,72.20
2022-08-24T06:51:37.547Z,71.60
2022-08-24T06:54:05.140Z,70.50
2022-08-24T06:56:32.347Z,70.80
2022-08-24T06:59:03.190Z,70.60
2022-08-24T07:01:31.263Z,70.30
2022-08-24T07:03:58.539Z,71.20
2022-08-24T07:06:26.667Z,72.00
2022-08-24T07:08:56.423Z,71.90
2022-08-24T07:11:25.020Z,70.30
2022-08-24T07:13:52.417Z,68.50
2022-08-24T07:16:21.272Z,65.50
2022-08-24T07:18:49.831Z,64.00
2022-08-24T07:21:19.714Z,63.90
2022-08-24T07:23:48.841Z,63.20
2022-08-24T07:26:21.279Z,62.40
2022-08-24T07:28:59.434Z,62.00
2022-08-24T07:31:29.995Z,62.50
2022-08-24T07:33:59.315Z,62.20
2022-08-24T07:36:28.366Z,61.90
2022-08-24T07:38:57.307Z,60.40
2022-08-24T07:44:14.870Z,61.10
2022-08-24T07:46:42.287Z,60.00
2022-08-24T07:49:21.493Z,59.50
2022-08-24T07:51:58.724Z,59.20
2022-08-24T07:54:28.675Z,58.50
2022-08-24T07:56:56.376Z,58.70
2022-08-24T07:59:23.715Z,59.10
2022-08-24T08:01:51.438Z,58.80
2022-08-24T08:04:22.015Z,58.30
2022-08-24T08:06:49.376Z,58.40
2022-08-24T08:09:18.151Z,58.40
2022-08-24T08:11:45.393Z,57.30
2022-08-24T08:14:14.830Z,57.50
2022-08-24T08:16:42.380Z,56.30
2022-08-24T08:19:10.727Z,55.30
2022-08-24T08:22:09.087Z,53.20
2022-08-24T08:24:39.791Z,52.00
2022-08-24T08:27:07.074Z,52.60
2022-08-24T08:29:35.476Z,50.50
2022-08-24T08:32:03.100Z,49.80
2022-08-24T08:34:31.498Z,50.10
2022-08-24T08:37:00.116Z,50.50
2022-08-24T08:39:27.885Z,50.00
2022-08-24T08:42:22.066Z,49.70
2022-08-24T08:45:14.722Z,48.50
2022-08-24T08:50:55.897Z,49.40
2022-08-24T08:53:57.888Z,49.10
2022-08-24T08:56:40.880Z,47.50
2022-08-24T09:02:17.703Z,47.30
2022-08-24T09:05:23.949Z,46.10
2022-08-24T09:08:10.792Z,45.90
2022-08-24T09:14:00.442Z,46.30
2022-08-24T09:16:56.217Z,46.30
2022-08-24T09:19:54.096Z,46.20
2022-08-24T09:22:22.346Z,46.80
2022-08-24T09:28:00.366Z,46.80
2022-08-24T09:30:38.800Z,45.80
2022-08-24T09:33:42.803Z,46.10
2022-08-24T09:36:32.778Z,46.10
2022-08-24T09:39:26.988Z,47.00
2022-08-24T09:42:27.039Z,46.50
2022-08-24T09:45:25.348Z,46.50
2022-08-24T09:48:27.882Z,46.10
2022-08-24T09:54:36.050Z,47.40
2022-08-24T09:57:44.100Z,47.50
2022-08-24T10:00:24.875Z,47.00
2022-08-24T10:03:36.178Z,46.10
2022-08-24T10:06:44.985Z,46.10
2022-08-24T10:09:40.213Z,45.80
2022-08-24T10:12:35.705Z,45.40
2022-08-24T10:15:09.251Z,45.70
2022-08-24T10:18:07.108Z,46.30
2022-08-24T10:21:08.717Z,46.00
2022-08-24T10:24:15.747Z,46.20
2022-08-24T10:27:08.740Z,46.20
2022-08-24T10:33:03.593Z,47.10
2022-08-24T10:36:10.716Z,46.10
2022-08-24T10:39:36.991Z,45.30
2022-08-24T10:42:53.941Z,44.70
2022-08-24T10:46:02.957Z,44.60
2022-08-24T10:48:47.686Z,44.20
2022-08-24T10:51:46.327Z,43.70
2022-08-24T10:54:13.892Z,44.70
2022-08-24T10:57:10.305Z,45.00
2022-08-24T10:59:58.853Z,45.10
2022-08-24T11:02:33.145Z,46.50
2022-08-24T11:05:05.944Z,46.80
2022-08-24T11:07:34.662Z,46.10
2022-08-24T11:10:06.655Z,45.90
2022-08-24T11:12:39.418Z,44.90
2022-08-24T11:15:26.329Z,44.40
2022-08-24T11:17:57.012Z,43.30
2022-08-24T11:20:29.510Z,44.40
2022-08-24T11:25:38.404Z,45.70
2022-08-24T11:28:32.165Z,45.30
2022-08-24T11:31:00.817Z,45.80
2022-08-24T11:33:46.356Z,46.80
2022-08-24T11:36:23.522Z,47.10
2022-08-24T11:39:27.733Z,47.10
2022-08-24T11:42:34.789Z,47.80
2022-08-24T11:45:12.488Z,47.00
2022-08-24T11:53:28.009Z,47.10
2022-08-24T11:56:25.755Z,46.80
2022-08-24T11:59:04.742Z,47.30
2022-08-24T12:01:44.845Z,47.50
2022-08-24T12:04:52.099Z,48.00
2022-08-24T12:07:44.600Z,48.10
2022-08-24T12:10:46.537Z,48.90
2022-08-24T12:13:43.085Z,48.60
2022-08-24T12:16:28.935Z,49.00
2022-08-24T12:19:03.267Z,48.90
2022-08-24T12:21:37.821Z,48.60
2022-08-24T12:24:13.142Z,50.00
2022-08-24T12:26:46.021Z,49.80
2022-08-24T12:29:38.608Z,49.70
2022-08-24T12:32:18.964Z,49.60
2022-08-24T12:34:58.576Z,49.20
2022-08-24T12:37:32.821Z,49.20
2022-08-24T12:40:25.979Z,49.50
2022-08-24T12:43:06.118Z,49.90
2022-08-24T12:45:33.557Z,49.80
2022-08-24T12:53:54.393Z,49.60
2022-08-24T12:56:52.128Z,49.80
2022-08-24T12:59:44.003Z,49.80
2022-08-24T13:07:40.502Z,50.20
2022-08-24T13:10:16.500Z,50.30
2022-08-24T13:15:46.824Z,50.50
2022-08-24T13:23:29.639Z,50.40
2022-08-24T13:26:17.799Z,50.40
2022-08-24T13:28:48.556Z,49.70
2022-08-24T13:31:27.131Z,49.80
2022-08-24T13:37:10.727Z,50.10
2022-08-24T13:39:51.385Z,50.50
2022-08-24T13:42:31.208Z,50.80
2022-08-24T13:45:21.377Z,50.10
2022-08-24T13:51:13.948Z,50.60
2022-08-24T13:54:18.845Z,50.90
2022-08-24T14:00:08.110Z,50.70
2022-08-24T14:03:14.384Z,50.40
2022-08-24T14:06:20.593Z,50.60
2022-08-24T14:09:22.928Z,50.60
2022-08-24T14:12:20.518Z,50.30
2022-08-24T14:15:07.002Z,50.00
2022-08-24T14:17:54.678Z,50.20
2022-08-24T14:23:25.507Z,50.40
2022-08-24T14:26:33.111Z,50.40
2022-08-24T14:34:57.757Z,50.60
2022-08-24T14:37:56.766Z,50.00
2022-08-24T14:40:50.016Z,50.30
2022-08-24T14:46:23.292Z,49.70
2022-08-24T14:49:07.857Z,48.20
2022-08-24T14:52:07.995Z,47.00
2022-08-24T14:58:23.783Z,48.70
2022-08-24T15:04:06.663Z,49.20
2022-08-24T15:06:48.245Z,49.40
2022-08-24T15:12:13.566Z,48.40
2022-08-24T15:14:48.290Z,49.80
2022-08-24T15:17:26.015Z,49.90
2022-08-24T15:20:06.360Z,50.00
2022-08-24T15:22:46.591Z,50.10
2022-08-24T15:25:30.096Z,49.80
2022-08-24T15:28:10.873Z,49.80
2022-08-24T15:30:41.370Z,50.10
2022-08-24T15:33:17.205Z,49.90
2022-08-24T15:35:50.302Z,50.10
2022-08-24T15:38:21.998Z,50.40
2022-08-24T15:41:02.041Z,50.70
2022-08-24T15:43:29.552Z,50.20
2022-08-24T15:45:57.249Z,50.30
2022-08-24T15:48:26.053Z,50.30
2022-08-24T15:50:55.978Z,50.60
2022-08-24T15:56:58.138Z,50.70
